Terminal Aerodrome Forecast
Issued by NWS Wilmington, NC

Home | Current Version | Previous Version | Text Only | Print | Product List | Glossary On
Versions: 1 2 3 4 5 6 7 8 9 10 11 12 13 14 15 16 17 18 19 20 21 22 23 24 25 26 27 28
000
FTUS42 KILM 210520
TAFFLO
TAF
KFLO 210520Z 2106/2206 22008KT P6SM SCT120
     FM210800 26007KT P6SM SCT250
     FM211100 33007KT P6SM SKC
     FM211800 28006KT P6SM SKC
     FM220000 25003KT P6SM SKC=

USA.gov is the U.S. government's official web portal to all federal, state and local government web resources and services.